sensor_id;sensor_type;location;lat;lon;timestamp;P1;durP1;ratioP1;P2;durP2;ratioP2
43216;SDS011;71549;42.686;23.300;2023-07-22T00:01:45;9.27;;;5.80;;
43216;SDS011;71549;42.686;23.300;2023-07-22T00:03:45;7.93;;;5.47;;
43216;SDS011;71549;42.686;23.300;2023-07-22T00:05:45;10.10;;;6.30;;
43216;SDS011;71549;42.686;23.300;2023-07-22T00:07:46;10.43;;;5.55;;
43216;SDS011;71549;42.686;23.300;2023-07-22T00:09:47;11.38;;;6.03;;
43216;SDS011;71549;42.686;23.300;2023-07-22T00:11:50;8.80;;;5.53;;
43216;SDS011;71549;42.686;23.300;2023-07-22T00:13:50;10.90;;;6.40;;
43216;SDS011;71549;42.686;23.300;2023-07-22T00:15:52;9.75;;;5.65;;
43216;SDS011;71549;42.686;23.300;2023-07-22T00:17:53;11.60;;;6.07;;
43216;SDS011;71549;42.686;23.300;2023-07-22T00:19:56;12.18;;;6.32;;
43216;SDS011;71549;42.686;23.300;2023-07-22T00:21:56;10.30;;;5.70;;
43216;SDS011;71549;42.686;23.300;2023-07-22T00:23:56;11.55;;;6.47;;
43216;SDS011;71549;42.686;23.300;2023-07-22T00:25:57;9.18;;;5.28;;
43216;SDS011;71549;42.686;23.300;2023-07-22T00:27:57;8.90;;;5.38;;
43216;SDS011;71549;42.686;23.300;2023-07-22T00:29:58;8.10;;;5.55;;
43216;SDS011;71549;42.686;23.300;2023-07-22T00:31:58;9.35;;;5.70;;
43216;SDS011;71549;42.686;23.300;2023-07-22T00:33:59;9.70;;;5.47;;
43216;SDS011;71549;42.686;23.300;2023-07-22T00:35:59;5.72;;;4.75;;
43216;SDS011;71549;42.686;23.300;2023-07-22T00:38:00;7.28;;;4.90;;
43216;SDS011;71549;42.686;23.300;2023-07-22T00:40:01;10.68;;;5.28;;
43216;SDS011;71549;42.686;23.300;2023-07-22T00:42:06;7.22;;;5.30;;
43216;SDS011;71549;42.686;23.300;2023-07-22T00:44:08;10.13;;;6.35;;
43216;SDS011;71549;42.686;23.300;2023-07-22T00:46:08;9.38;;;5.72;;
43216;SDS011;71549;42.686;23.300;2023-07-22T00:48:10;6.97;;;5.47;;
43216;SDS011;71549;42.686;23.300;2023-07-22T00:50:11;10.27;;;5.95;;
43216;SDS011;71549;42.686;23.300;2023-07-22T00:52:12;7.00;;;6.03;;
43216;SDS011;71549;42.686;23.300;2023-07-22T00:54:12;8.48;;;6.20;;
43216;SDS011;71549;42.686;23.300;2023-07-22T00:56:13;9.07;;;6.20;;
43216;SDS011;71549;42.686;23.300;2023-07-22T00:58:14;9.73;;;5.85;;
43216;SDS011;71549;42.686;23.300;2023-07-22T01:00:15;8.40;;;5.50;;
43216;SDS011;71549;42.686;23.300;2023-07-22T01:02:16;9.27;;;5.78;;
43216;SDS011;71549;42.686;23.300;2023-07-22T01:04:19;9.27;;;5.85;;
43216;SDS011;71549;42.686;23.300;2023-07-22T01:06:22;10.75;;;5.32;;
43216;SDS011;71549;42.686;23.300;2023-07-22T01:08:25;7.05;;;5.32;;
43216;SDS011;71549;42.686;23.300;2023-07-22T01:10:25;10.40;;;5.60;;
43216;SDS011;71549;42.686;23.300;2023-07-22T01:12:26;11.50;;;5.82;;
43216;SDS011;71549;42.686;23.300;2023-07-22T01:14:26;11.30;;;6.57;;
43216;SDS011;71549;42.686;23.300;2023-07-22T01:16:27;7.70;;;5.47;;
43216;SDS011;71549;42.686;23.300;2023-07-22T01:18:28;6.45;;;5.07;;
43216;SDS011;71549;42.686;23.300;2023-07-22T01:20:29;7.05;;;4.72;;
43216;SDS011;71549;42.686;23.300;2023-07-22T01:22:29;8.85;;;5.75;;
43216;SDS011;71549;42.686;23.300;2023-07-22T01:24:32;13.57;;;6.05;;
43216;SDS011;71549;42.686;23.300;2023-07-22T01:26:32;8.95;;;6.32;;
43216;SDS011;71549;42.686;23.300;2023-07-22T01:28:36;9.45;;;6.30;;
43216;SDS011;71549;42.686;23.300;2023-07-22T01:30:36;11.93;;;5.38;;
43216;SDS011;71549;42.686;23.300;2023-07-22T01:32:36;10.57;;;6.03;;
43216;SDS011;71549;42.686;23.300;2023-07-22T01:34:38;8.65;;;5.93;;
43216;SDS011;71549;42.686;23.300;2023-07-22T01:36:40;8.32;;;6.25;;
43216;SDS011;71549;42.686;23.300;2023-07-22T01:38:41;7.78;;;5.80;;
43216;SDS011;71549;42.686;23.300;2023-07-22T01:40:41;12.85;;;7.25;;
43216;SDS011;71549;42.686;23.300;2023-07-22T01:42:43;8.15;;;6.40;;
43216;SDS011;71549;42.686;23.300;2023-07-22T01:44:43;8.35;;;5.30;;
43216;SDS011;71549;42.686;23.300;2023-07-22T01:46:43;9.82;;;5.72;;
43216;SDS011;71549;42.686;23.300;2023-07-22T01:48:44;10.05;;;6.03;;
43216;SDS011;71549;42.686;23.300;2023-07-22T01:50:44;7.50;;;5.88;;
43216;SDS011;71549;42.686;23.300;2023-07-22T01:52:45;8.35;;;6.30;;
43216;SDS011;71549;42.686;23.300;2023-07-22T01:54:46;10.30;;;5.80;;
43216;SDS011;71549;42.686;23.300;2023-07-22T01:56:47;7.22;;;5.82;;
43216;SDS011;71549;42.686;23.300;2023-07-22T01:58:47;11.95;;;6.00;;
43216;SDS011;71549;42.686;23.300;2023-07-22T02:00:50;10.48;;;6.28;;
43216;SDS011;71549;42.686;23.300;2023-07-22T02:02:51;9.90;;;6.35;;
43216;SDS011;71549;42.686;23.300;2023-07-22T02:04:51;7.95;;;6.03;;
43216;SDS011;71549;42.686;23.300;2023-07-22T02:06:52;10.20;;;6.53;;
43216;SDS011;71549;42.686;23.300;2023-07-22T02:08:53;7.22;;;5.75;;
43216;SDS011;71549;42.686;23.300;2023-07-22T02:10:53;8.02;;;5.95;;
43216;SDS011;71549;42.686;23.300;2023-07-22T02:12:53;12.07;;;6.15;;
43216;SDS011;71549;42.686;23.300;2023-07-22T02:14:54;6.95;;;5.40;;
43216;SDS011;71549;42.686;23.300;2023-07-22T02:16:55;7.68;;;5.85;;
43216;SDS011;71549;42.686;23.300;2023-07-22T02:18:55;8.32;;;5.80;;
43216;SDS011;71549;42.686;23.300;2023-07-22T02:20:56;7.78;;;5.22;;
43216;SDS011;71549;42.686;23.300;2023-07-22T02:22:57;8.38;;;6.10;;
43216;SDS011;71549;42.686;23.300;2023-07-22T02:24:57;11.32;;;6.22;;
43216;SDS011;71549;42.686;23.300;2023-07-22T02:26:57;9.27;;;6.72;;
43216;SDS011;71549;42.686;23.300;2023-07-22T02:28:58;8.13;;;6.10;;
43216;SDS011;71549;42.686;23.300;2023-07-22T02:31:00;11.40;;;6.45;;
43216;SDS011;71549;42.686;23.300;2023-07-22T02:33:07;10.75;;;6.72;;
43216;SDS011;71549;42.686;23.300;2023-07-22T02:35:08;11.95;;;6.78;;
43216;SDS011;71549;42.686;23.300;2023-07-22T02:37:09;10.32;;;6.60;;
43216;SDS011;71549;42.686;23.300;2023-07-22T02:39:10;11.13;;;6.32;;
43216;SDS011;71549;42.686;23.300;2023-07-22T02:41:10;8.55;;;5.88;;
43216;SDS011;71549;42.686;23.300;2023-07-22T02:43:11;11.55;;;5.32;;
43216;SDS011;71549;42.686;23.300;2023-07-22T02:45:11;9.65;;;6.97;;
43216;SDS011;71549;42.686;23.300;2023-07-22T02:47:12;9.65;;;6.30;;
43216;SDS011;71549;42.686;23.300;2023-07-22T02:49:13;9.57;;;6.47;;
43216;SDS011;71549;42.686;23.300;2023-07-22T02:51:13;11.40;;;6.47;;
43216;SDS011;71549;42.686;23.300;2023-07-22T02:53:14;7.68;;;6.75;;
43216;SDS011;71549;42.686;23.300;2023-07-22T02:55:15;9.07;;;6.43;;
43216;SDS011;71549;42.686;23.300;2023-07-22T02:57:19;8.75;;;5.95;;
43216;SDS011;71549;42.686;23.300;2023-07-22T02:59:20;8.90;;;6.78;;
43216;SDS011;71549;42.686;23.300;2023-07-22T03:01:20;9.07;;;5.85;;
43216;SDS011;71549;42.686;23.300;2023-07-22T03:03:22;9.20;;;5.55;;
43216;SDS011;71549;42.686;23.300;2023-07-22T03:05:23;8.15;;;5.90;;
43216;SDS011;71549;42.686;23.300;2023-07-22T03:09:27;12.93;;;6.65;;
43216;SDS011;71549;42.686;23.300;2023-07-22T03:11:27;7.35;;;5.60;;
43216;SDS011;71549;42.686;23.300;2023-07-22T03:13:28;11.73;;;6.82;;
43216;SDS011;71549;42.686;23.300;2023-07-22T03:15:29;8.45;;;5.45;;
43216;SDS011;71549;42.686;23.300;2023-07-22T03:17:31;10.57;;;6.00;;
43216;SDS011;71549;42.686;23.300;2023-07-22T03:19:31;8.93;;;5.68;;
43216;SDS011;71549;42.686;23.300;2023-07-22T03:21:32;7.47;;;5.78;;
43216;SDS011;71549;42.686;23.300;2023-07-22T03:23:32;8.32;;;5.43;;
43216;SDS011;71549;42.686;23.300;2023-07-22T03:25:33;9.40;;;5.70;;
43216;SDS011;71549;42.686;23.300;2023-07-22T03:27:34;8.50;;;6.22;;
43216;SDS011;71549;42.686;23.300;2023-07-22T03:29:35;6.60;;;5.38;;
43216;SDS011;71549;42.686;23.300;2023-07-22T03:31:37;8.23;;;6.60;;
43216;SDS011;71549;42.686;23.300;2023-07-22T03:33:37;6.85;;;5.72;;
43216;SDS011;71549;42.686;23.300;2023-07-22T03:35:38;11.27;;;6.68;;
43216;SDS011;71549;42.686;23.300;2023-07-22T03:37:39;13.07;;;6.38;;
43216;SDS011;71549;42.686;23.300;2023-07-22T03:39:40;9.68;;;5.82;;
43216;SDS011;71549;42.686;23.300;2023-07-22T03:41:40;6.88;;;6.28;;
43216;SDS011;71549;42.686;23.300;2023-07-22T03:43:41;11.85;;;6.30;;
43216;SDS011;71549;42.686;23.300;2023-07-22T03:45:41;6.75;;;6.00;;
43216;SDS011;71549;42.686;23.300;2023-07-22T03:47:46;10.38;;;6.80;;
43216;SDS011;71549;42.686;23.300;2023-07-22T03:49:58;10.02;;;5.97;;
43216;SDS011;71549;42.686;23.300;2023-07-22T03:51:58;10.82;;;6.15;;
43216;SDS011;71549;42.686;23.300;2023-07-22T03:53:59;12.43;;;6.57;;
43216;SDS011;71549;42.686;23.300;2023-07-22T03:56:00;8.55;;;5.80;;
43216;SDS011;71549;42.686;23.300;2023-07-22T03:58:00;11.75;;;6.70;;
43216;SDS011;71549;42.686;23.300;2023-07-22T04:00:01;10.13;;;6.05;;
43216;SDS011;71549;42.686;23.300;2023-07-22T04:02:03;11.63;;;6.30;;
43216;SDS011;71549;42.686;23.300;2023-07-22T04:04:04;9.85;;;6.45;;
43216;SDS011;71549;42.686;23.300;2023-07-22T04:06:04;9.65;;;6.20;;
43216;SDS011;71549;42.686;23.300;2023-07-22T04:08:04;9.00;;;5.57;;
43216;SDS011;71549;42.686;23.300;2023-07-22T04:10:06;7.30;;;6.00;;
43216;SDS011;71549;42.686;23.300;2023-07-22T04:12:08;9.80;;;6.10;;
43216;SDS011;71549;42.686;23.300;2023-07-22T04:14:09;9.23;;;6.55;;
43216;SDS011;71549;42.686;23.300;2023-07-22T04:16:12;9.88;;;6.95;;
43216;SDS011;71549;42.686;23.300;2023-07-22T04:18:12;10.13;;;6.95;;
43216;SDS011;71549;42.686;23.300;2023-07-22T04:20:14;9.32;;;6.88;;
43216;SDS011;71549;42.686;23.300;2023-07-22T04:22:14;9.80;;;7.03;;
43216;SDS011;71549;42.686;23.300;2023-07-22T04:24:16;10.23;;;7.25;;
43216;SDS011;71549;42.686;23.300;2023-07-22T04:26:16;9.98;;;6.82;;
43216;SDS011;71549;42.686;23.300;2023-07-22T04:28:17;7.88;;;6.43;;
43216;SDS011;71549;42.686;23.300;2023-07-22T04:30:17;8.93;;;6.60;;
43216;SDS011;71549;42.686;23.300;2023-07-22T04:32:20;11.88;;;6.80;;
43216;SDS011;71549;42.686;23.300;2023-07-22T04:34:21;9.57;;;7.10;;
43216;SDS011;71549;42.686;23.300;2023-07-22T04:36:22;10.32;;;7.55;;
43216;SDS011;71549;42.686;23.300;2023-07-22T04:38:23;10.65;;;7.10;;
43216;SDS011;71549;42.686;23.300;2023-07-22T04:40:23;9.45;;;7.13;;
43216;SDS011;71549;42.686;23.300;2023-07-22T04:42:25;9.52;;;6.55;;
43216;SDS011;71549;42.686;23.300;2023-07-22T04:44:27;7.70;;;6.38;;
43216;SDS011;71549;42.686;23.300;2023-07-22T04:46:28;8.73;;;6.63;;
43216;SDS011;71549;42.686;23.300;2023-07-22T04:48:30;12.13;;;7.07;;
43216;SDS011;71549;42.686;23.300;2023-07-22T04:50:31;8.50;;;6.55;;
43216;SDS011;71549;42.686;23.300;2023-07-22T04:52:32;7.85;;;6.72;;
43216;SDS011;71549;42.686;23.300;2023-07-22T04:54:33;11.00;;;6.70;;
43216;SDS011;71549;42.686;23.300;2023-07-22T04:56:33;9.32;;;7.72;;
43216;SDS011;71549;42.686;23.300;2023-07-22T04:58:34;12.80;;;8.05;;
43216;SDS011;71549;42.686;23.300;2023-07-22T05:00:34;10.88;;;7.93;;
43216;SDS011;71549;42.686;23.300;2023-07-22T05:02:37;13.43;;;8.48;;
43216;SDS011;71549;42.686;23.300;2023-07-22T05:04:39;13.63;;;8.93;;
43216;SDS011;71549;42.686;23.300;2023-07-22T05:06:40;12.73;;;7.72;;
43216;SDS011;71549;42.686;23.300;2023-07-22T05:08:40;12.65;;;8.05;;
43216;SDS011;71549;42.686;23.300;2023-07-22T05:10:41;14.63;;;8.43;;
43216;SDS011;71549;42.686;23.300;2023-07-22T05:12:42;11.15;;;7.25;;
43216;SDS011;71549;42.686;23.300;2023-07-22T05:14:42;10.77;;;7.70;;
43216;SDS011;71549;42.686;23.300;2023-07-22T05:16:43;10.65;;;7.53;;
43216;SDS011;71549;42.686;23.300;2023-07-22T05:18:43;9.90;;;7.82;;
43216;SDS011;71549;42.686;23.300;2023-07-22T05:20:43;11.27;;;6.93;;
43216;SDS011;71549;42.686;23.300;2023-07-22T05:22:45;9.50;;;7.28;;
43216;SDS011;71549;42.686;23.300;2023-07-22T05:24:45;13.68;;;8.32;;
43216;SDS011;71549;42.686;23.300;2023-07-22T05:26:46;11.30;;;7.25;;
43216;SDS011;71549;42.686;23.300;2023-07-22T05:28:46;8.73;;;6.40;;
43216;SDS011;71549;42.686;23.300;2023-07-22T05:30:47;10.73;;;7.35;;
43216;SDS011;71549;42.686;23.300;2023-07-22T05:32:51;10.02;;;7.07;;
43216;SDS011;71549;42.686;23.300;2023-07-22T05:34:52;11.70;;;6.85;;
43216;SDS011;71549;42.686;23.300;2023-07-22T05:36:52;10.27;;;7.18;;
43216;SDS011;71549;42.686;23.300;2023-07-22T05:38:53;8.70;;;7.43;;
43216;SDS011;71549;42.686;23.300;2023-07-22T05:40:54;10.85;;;7.22;;
43216;SDS011;71549;42.686;23.300;2023-07-22T05:42:54;12.25;;;7.75;;
43216;SDS011;71549;42.686;23.300;2023-07-22T05:44:56;11.20;;;8.10;;
43216;SDS011;71549;42.686;23.300;2023-07-22T05:46:57;9.13;;;7.85;;
43216;SDS011;71549;42.686;23.300;2023-07-22T05:48:58;13.10;;;8.32;;
43216;SDS011;71549;42.686;23.300;2023-07-22T05:50:58;11.07;;;8.60;;
43216;SDS011;71549;42.686;23.300;2023-07-22T05:52:59;14.10;;;9.02;;
43216;SDS011;71549;42.686;23.300;2023-07-22T05:54:59;12.98;;;9.18;;
43216;SDS011;71549;42.686;23.300;2023-07-22T05:57:00;13.23;;;9.30;;
43216;SDS011;71549;42.686;23.300;2023-07-22T05:59:01;14.88;;;9.52;;
43216;SDS011;71549;42.686;23.300;2023-07-22T06:01:01;11.60;;;8.20;;
43216;SDS011;71549;42.686;23.300;2023-07-22T06:03:02;12.13;;;8.48;;
43216;SDS011;71549;42.686;23.300;2023-07-22T06:05:03;11.73;;;8.55;;
43216;SDS011;71549;42.686;23.300;2023-07-22T06:07:04;13.52;;;9.02;;
43216;SDS011;71549;42.686;23.300;2023-07-22T06:11:15;11.63;;;8.75;;
43216;SDS011;71549;42.686;23.300;2023-07-22T06:13:15;10.38;;;7.78;;
43216;SDS011;71549;42.686;23.300;2023-07-22T06:15:15;8.90;;;7.95;;
43216;SDS011;71549;42.686;23.300;2023-07-22T06:17:16;12.35;;;8.30;;
43216;SDS011;71549;42.686;23.300;2023-07-22T06:19:16;12.35;;;8.73;;
43216;SDS011;71549;42.686;23.300;2023-07-22T06:21:17;9.32;;;7.82;;
43216;SDS011;71549;42.686;23.300;2023-07-22T06:23:17;10.05;;;7.25;;
43216;SDS011;71549;42.686;23.300;2023-07-22T06:25:18;10.05;;;7.78;;
43216;SDS011;71549;42.686;23.300;2023-07-22T06:27:18;13.77;;;7.22;;
43216;SDS011;71549;42.686;23.300;2023-07-22T06:29:19;9.65;;;6.88;;
43216;SDS011;71549;42.686;23.300;2023-07-22T06:31:19;9.55;;;7.22;;
43216;SDS011;71549;42.686;23.300;2023-07-22T06:33:21;11.90;;;8.23;;
43216;SDS011;71549;42.686;23.300;2023-07-22T06:35:21;9.60;;;7.38;;
43216;SDS011;71549;42.686;23.300;2023-07-22T06:37:22;12.90;;;7.25;;
43216;SDS011;71549;42.686;23.300;2023-07-22T06:39:24;11.43;;;7.35;;
43216;SDS011;71549;42.686;23.300;2023-07-22T06:41:24;9.55;;;6.85;;
43216;SDS011;71549;42.686;23.300;2023-07-22T06:43:24;7.70;;;6.88;;
43216;SDS011;71549;42.686;23.300;2023-07-22T06:45:25;8.07;;;7.30;;
43216;SDS011;71549;42.686;23.300;2023-07-22T06:47:25;8.30;;;6.45;;
43216;SDS011;71549;42.686;23.300;2023-07-22T06:49:25;7.28;;;6.53;;
43216;SDS011;71549;42.686;23.300;2023-07-22T06:51:26;7.95;;;6.75;;
43216;SDS011;71549;42.686;23.300;2023-07-22T06:53:26;8.20;;;6.43;;
43216;SDS011;71549;42.686;23.300;2023-07-22T06:55:27;9.32;;;6.72;;
43216;SDS011;71549;42.686;23.300;2023-07-22T06:57:28;9.10;;;7.70;;
43216;SDS011;71549;42.686;23.300;2023-07-22T06:59:29;9.73;;;6.82;;
43216;SDS011;71549;42.686;23.300;2023-07-22T07:01:29;7.57;;;6.78;;
43216;SDS011;71549;42.686;23.300;2023-07-22T07:03:30;8.38;;;7.15;;
43216;SDS011;71549;42.686;23.300;2023-07-22T07:05:30;8.02;;;6.50;;
43216;SDS011;71549;42.686;23.300;2023-07-22T07:07:31;7.63;;;6.68;;
43216;SDS011;71549;42.686;23.300;2023-07-22T07:09:32;8.85;;;7.20;;
43216;SDS011;71549;42.686;23.300;2023-07-22T07:11:33;7.05;;;6.35;;
43216;SDS011;71549;42.686;23.300;2023-07-22T07:13:33;6.57;;;6.00;;
43216;SDS011;71549;42.686;23.300;2023-07-22T07:15:33;7.85;;;6.85;;
43216;SDS011;71549;42.686;23.300;2023-07-22T07:17:34;7.25;;;6.55;;
43216;SDS011;71549;42.686;23.300;2023-07-22T07:19:34;8.93;;;6.45;;
43216;SDS011;71549;42.686;23.300;2023-07-22T07:21:35;8.32;;;6.80;;
43216;SDS011;71549;42.686;23.300;2023-07-22T07:23:37;7.65;;;6.68;;
43216;SDS011;71549;42.686;23.300;2023-07-22T07:25:37;8.02;;;6.50;;
43216;SDS011;71549;42.686;23.300;2023-07-22T07:27:38;8.57;;;6.88;;
43216;SDS011;71549;42.686;23.300;2023-07-22T07:29:38;7.35;;;6.32;;
43216;SDS011;71549;42.686;23.300;2023-07-22T07:31:39;6.95;;;6.32;;
43216;SDS011;71549;42.686;23.300;2023-07-22T07:33:40;7.47;;;6.18;;
43216;SDS011;71549;42.686;23.300;2023-07-22T07:35:40;6.93;;;6.22;;
43216;SDS011;71549;42.686;23.300;2023-07-22T07:37:46;8.85;;;6.47;;
43216;SDS011;71549;42.686;23.300;2023-07-22T07:39:47;8.38;;;6.10;;
43216;SDS011;71549;42.686;23.300;2023-07-22T07:41:47;9.23;;;6.68;;
43216;SDS011;71549;42.686;23.300;2023-07-22T07:43:47;8.63;;;6.90;;
43216;SDS011;71549;42.686;23.300;2023-07-22T07:45:48;8.15;;;6.65;;
43216;SDS011;71549;42.686;23.300;2023-07-22T07:47:48;8.10;;;6.60;;
43216;SDS011;71549;42.686;23.300;2023-07-22T07:49:49;7.47;;;6.50;;
43216;SDS011;71549;42.686;23.300;2023-07-22T07:51:50;8.45;;;6.22;;
43216;SDS011;71549;42.686;23.300;2023-07-22T07:53:50;6.90;;;5.97;;
43216;SDS011;71549;42.686;23.300;2023-07-22T07:55:51;7.90;;;6.22;;
43216;SDS011;71549;42.686;23.300;2023-07-22T07:57:52;7.65;;;5.90;;
43216;SDS011;71549;42.686;23.300;2023-07-22T07:59:52;8.55;;;6.55;;
43216;SDS011;71549;42.686;23.300;2023-07-22T08:01:53;6.82;;;5.95;;
43216;SDS011;71549;42.686;23.300;2023-07-22T08:03:53;6.68;;;6.00;;
43216;SDS011;71549;42.686;23.300;2023-07-22T08:05:54;6.05;;;5.47;;
43216;SDS011;71549;42.686;23.300;2023-07-22T08:07:54;6.53;;;5.75;;
43216;SDS011;71549;42.686;23.300;2023-07-22T08:09:55;7.40;;;6.07;;
43216;SDS011;71549;42.686;23.300;2023-07-22T08:11:57;8.20;;;7.05;;
43216;SDS011;71549;42.686;23.300;2023-07-22T08:13:57;7.90;;;6.55;;
43216;SDS011;71549;42.686;23.300;2023-07-22T08:15:58;7.88;;;6.28;;
43216;SDS011;71549;42.686;23.300;2023-07-22T08:17:58;8.43;;;6.45;;
43216;SDS011;71549;42.686;23.300;2023-07-22T08:19:59;6.38;;;5.68;;
43216;SDS011;71549;42.686;23.300;2023-07-22T08:21:59;5.82;;;5.32;;
43216;SDS011;71549;42.686;23.300;2023-07-22T08:24:00;6.45;;;5.85;;
43216;SDS011;71549;42.686;23.300;2023-07-22T08:26:00;6.60;;;5.85;;
43216;SDS011;71549;42.686;23.300;2023-07-22T08:28:00;6.65;;;5.25;;
43216;SDS011;71549;42.686;23.300;2023-07-22T08:30:01;7.35;;;6.07;;
43216;SDS011;71549;42.686;23.300;2023-07-22T08:32:01;6.47;;;5.88;;
43216;SDS011;71549;42.686;23.300;2023-07-22T08:34:02;6.78;;;6.07;;
43216;SDS011;71549;42.686;23.300;2023-07-22T08:36:03;8.18;;;6.22;;
43216;SDS011;71549;42.686;23.300;2023-07-22T08:38:03;8.00;;;6.65;;
43216;SDS011;71549;42.686;23.300;2023-07-22T08:40:04;7.10;;;6.40;;
43216;SDS011;71549;42.686;23.300;2023-07-22T08:42:05;6.03;;;5.50;;
43216;SDS011;71549;42.686;23.300;2023-07-22T08:44:07;8.00;;;6.78;;
43216;SDS011;71549;42.686;23.300;2023-07-22T08:46:09;7.10;;;5.80;;
43216;SDS011;71549;42.686;23.300;2023-07-22T08:48:11;5.85;;;5.35;;
43216;SDS011;71549;42.686;23.300;2023-07-22T08:50:15;7.70;;;6.20;;
43216;SDS011;71549;42.686;23.300;2023-07-22T08:52:19;5.93;;;5.32;;
43216;SDS011;71549;42.686;23.300;2023-07-22T08:54:20;6.20;;;5.60;;
43216;SDS011;71549;42.686;23.300;2023-07-22T08:56:23;6.82;;;5.25;;
43216;SDS011;71549;42.686;23.300;2023-07-22T08:58:25;6.67;;;6.07;;
43216;SDS011;71549;42.686;23.300;2023-07-22T09:00:26;6.45;;;5.85;;
43216;SDS011;71549;42.686;23.300;2023-07-22T09:02:27;6.78;;;6.05;;
43216;SDS011;71549;42.686;23.300;2023-07-22T09:04:28;7.05;;;6.38;;
43216;SDS011;71549;42.686;23.300;2023-07-22T09:06:29;7.53;;;5.75;;
43216;SDS011;71549;42.686;23.300;2023-07-22T09:08:30;5.95;;;5.35;;
43216;SDS011;71549;42.686;23.300;2023-07-22T09:10:31;5.93;;;5.32;;
43216;SDS011;71549;42.686;23.300;2023-07-22T09:12:32;6.70;;;6.07;;
43216;SDS011;71549;42.686;23.300;2023-07-22T09:14:39;6.30;;;5.70;;
43216;SDS011;71549;42.686;23.300;2023-07-22T09:16:41;6.50;;;5.63;;
43216;SDS011;71549;42.686;23.300;2023-07-22T09:18:42;6.03;;;5.47;;
43216;SDS011;71549;42.686;23.300;2023-07-22T09:20:42;6.35;;;5.65;;
43216;SDS011;71549;42.686;23.300;2023-07-22T09:22:44;7.20;;;5.72;;
43216;SDS011;71549;42.686;23.300;2023-07-22T09:24:45;8.13;;;5.67;;
43216;SDS011;71549;42.686;23.300;2023-07-22T09:26:45;7.65;;;6.03;;
43216;SDS011;71549;42.686;23.300;2023-07-22T09:28:50;7.15;;;5.63;;
43216;SDS011;71549;42.686;23.300;2023-07-22T09:30:51;6.32;;;5.70;;
43216;SDS011;71549;42.686;23.300;2023-07-22T09:33:02;8.13;;;5.60;;
43216;SDS011;71549;42.686;23.300;2023-07-22T09:35:04;6.47;;;5.78;;
43216;SDS011;71549;42.686;23.300;2023-07-22T09:37:09;6.90;;;6.25;;
43216;SDS011;71549;42.686;23.300;2023-07-22T09:39:10;6.28;;;5.68;;
43216;SDS011;71549;42.686;23.300;2023-07-22T09:41:16;7.63;;;5.50;;
43216;SDS011;71549;42.686;23.300;2023-07-22T09:43:19;5.90;;;5.30;;
43216;SDS011;71549;42.686;23.300;2023-07-22T09:45:21;6.60;;;5.82;;
43216;SDS011;71549;42.686;23.300;2023-07-22T09:47:23;6.10;;;5.55;;
43216;SDS011;71549;42.686;23.300;2023-07-22T09:49:23;6.47;;;5.78;;
43216;SDS011;71549;42.686;23.300;2023-07-22T09:51:23;6.78;;;6.15;;
43216;SDS011;71549;42.686;23.300;2023-07-22T09:53:25;5.47;;;4.97;;
43216;SDS011;71549;42.686;23.300;2023-07-22T09:55:26;6.18;;;5.57;;
43216;SDS011;71549;42.686;23.300;2023-07-22T09:57:30;6.68;;;5.38;;
43216;SDS011;71549;42.686;23.300;2023-07-22T09:59:34;5.70;;;5.10;;
43216;SDS011;71549;42.686;23.300;2023-07-22T10:01:34;5.57;;;5.07;;
43216;SDS011;71549;42.686;23.300;2023-07-22T10:03:35;6.28;;;5.68;;
43216;SDS011;71549;42.686;23.300;2023-07-22T10:05:39;6.72;;;6.10;;
43216;SDS011;71549;42.686;23.300;2023-07-22T10:07:49;6.80;;;5.93;;
43216;SDS011;71549;42.686;23.300;2023-07-22T10:09:52;6.55;;;5.95;;
43216;SDS011;71549;42.686;23.300;2023-07-22T10:11:55;7.07;;;5.95;;
43216;SDS011;71549;42.686;23.300;2023-07-22T10:13:55;8.15;;;6.47;;
43216;SDS011;71549;42.686;23.300;2023-07-22T10:15:56;7.63;;;6.15;;
43216;SDS011;71549;42.686;23.300;2023-07-22T10:17:57;6.15;;;5.55;;
43216;SDS011;71549;42.686;23.300;2023-07-22T10:19:57;6.93;;;6.22;;
43216;SDS011;71549;42.686;23.300;2023-07-22T10:21:58;7.00;;;6.28;;
43216;SDS011;71549;42.686;23.300;2023-07-22T10:23:59;9.68;;;6.53;;
43216;SDS011;71549;42.686;23.300;2023-07-22T10:26:01;7.45;;;6.75;;
43216;SDS011;71549;42.686;23.300;2023-07-22T10:28:03;7.05;;;6.38;;
43216;SDS011;71549;42.686;23.300;2023-07-22T10:30:06;7.10;;;6.40;;
43216;SDS011;71549;42.686;23.300;2023-07-22T10:32:10;8.20;;;6.38;;
43216;SDS011;71549;42.686;23.300;2023-07-22T10:34:11;7.38;;;6.60;;
43216;SDS011;71549;42.686;23.300;2023-07-22T10:36:14;7.57;;;6.03;;
43216;SDS011;71549;42.686;23.300;2023-07-22T10:38:16;6.13;;;5.50;;
43216;SDS011;71549;42.686;23.300;2023-07-22T10:42:24;7.33;;;5.90;;
43216;SDS011;71549;42.686;23.300;2023-07-22T10:44:25;8.15;;;6.30;;
43216;SDS011;71549;42.686;23.300;2023-07-22T10:46:36;11.43;;;6.18;;
43216;SDS011;71549;42.686;23.300;2023-07-22T10:48:43;9.77;;;6.57;;
43216;SDS011;71549;42.686;23.300;2023-07-22T10:52:46;7.55;;;5.43;;
43216;SDS011;71549;42.686;23.300;2023-07-22T10:54:48;9.90;;;5.85;;
43216;SDS011;71549;42.686;23.300;2023-07-22T10:56:48;7.30;;;5.70;;
43216;SDS011;71549;42.686;23.300;2023-07-22T11:00:53;7.68;;;5.93;;
43216;SDS011;71549;42.686;23.300;2023-07-22T11:03:10;7.05;;;5.80;;
43216;SDS011;71549;42.686;23.300;2023-07-22T11:05:16;9.75;;;6.00;;
43216;SDS011;71549;42.686;23.300;2023-07-22T11:07:28;8.20;;;6.03;;
43216;SDS011;71549;42.686;23.300;2023-07-22T11:11:40;9.20;;;6.32;;
43216;SDS011;71549;42.686;23.300;2023-07-22T11:13:41;9.07;;;5.97;;
43216;SDS011;71549;42.686;23.300;2023-07-22T11:15:46;7.00;;;5.65;;
43216;SDS011;71549;42.686;23.300;2023-07-22T11:17:48;7.45;;;5.47;;
43216;SDS011;71549;42.686;23.300;2023-07-22T11:19:48;7.50;;;5.45;;
43216;SDS011;71549;42.686;23.300;2023-07-22T11:21:49;7.55;;;4.95;;
43216;SDS011;71549;42.686;23.300;2023-07-22T11:23:51;8.00;;;5.73;;
43216;SDS011;71549;42.686;23.300;2023-07-22T11:25:51;7.18;;;5.05;;
43216;SDS011;71549;42.686;23.300;2023-07-22T11:27:52;5.80;;;5.20;;
43216;SDS011;71549;42.686;23.300;2023-07-22T11:29:53;6.57;;;5.25;;
43216;SDS011;71549;42.686;23.300;2023-07-22T11:31:57;7.75;;;5.05;;
43216;SDS011;71549;42.686;23.300;2023-07-22T11:33:57;6.38;;;5.00;;
43216;SDS011;71549;42.686;23.300;2023-07-22T11:35:58;7.13;;;5.15;;
43216;SDS011;71549;42.686;23.300;2023-07-22T11:38:02;7.07;;;5.22;;
43216;SDS011;71549;42.686;23.300;2023-07-22T11:40:03;7.50;;;5.40;;
43216;SDS011;71549;42.686;23.300;2023-07-22T11:42:04;10.25;;;5.88;;
43216;SDS011;71549;42.686;23.300;2023-07-22T11:44:05;8.45;;;5.05;;
43216;SDS011;71549;42.686;23.300;2023-07-22T11:46:09;7.10;;;5.57;;
43216;SDS011;71549;42.686;23.300;2023-07-22T11:48:10;9.45;;;6.13;;
43216;SDS011;71549;42.686;23.300;2023-07-22T11:50:12;6.20;;;5.40;;
43216;SDS011;71549;42.686;23.300;2023-07-22T11:52:17;6.40;;;5.22;;
43216;SDS011;71549;42.686;23.300;2023-07-22T11:54:20;7.38;;;5.43;;
43216;SDS011;71549;42.686;23.300;2023-07-22T11:56:22;9.30;;;5.57;;
43216;SDS011;71549;42.686;23.300;2023-07-22T11:58:27;6.40;;;5.50;;
43216;SDS011;71549;42.686;23.300;2023-07-22T12:00:28;5.70;;;4.97;;
43216;SDS011;71549;42.686;23.300;2023-07-22T12:02:28;7.20;;;5.60;;
43216;SDS011;71549;42.686;23.300;2023-07-22T12:04:30;7.68;;;5.13;;
43216;SDS011;71549;42.686;23.300;2023-07-22T12:06:30;8.70;;;5.25;;
43216;SDS011;71549;42.686;23.300;2023-07-22T12:08:32;7.70;;;4.70;;
43216;SDS011;71549;42.686;23.300;2023-07-22T12:10:33;7.82;;;5.20;;